Terminal Aerodrome Forecast
Issued by NWS Detroit/Pontiac, MI

Home | Current Version | Previous Version | Text Only | Print | Product List | Glossary On
Versions: 1 2 3 4 5 6 7 8 9 10 11 12 13 14 15 16 17 18 19 20 21 22 23 24 25 26 27 28 29 30 31 32 33 34
268
FTUS43 KDTX 211139
TAFDTW
TAF
KDTW 211139Z 2112/2218 12003KT 1SM BR SCT002 BKN025
      TEMPO 2112/2114 1/2SM FG VV002
     FM211400 16005KT 3SM BR SCT004 BKN015
     FM211700 16007KT 6SM BR BKN008
     FM220300 15004KT 3/4SM BR OVC004
     FM220600 12003KT 1/4SM FG VV002=

USA.gov is the U.S. government's official web portal to all federal, state and local government web resources and services.